Terminal Aerodrome Forecast
Issued by NWS Pocatello, ID

Home | Current Version | Previous Version | Text Only | Print | Product List | Glossary On
Versions: 1 2 3 4 5 6 7 8 9 10 11 12 13 14 15 16
709
FTUS45 KPIH 232345 AAB
TAFPIH
TAF AMD
KPIH 232345Z 2400/2424 VRB06KT P6SM TS SCT070CB
      TEMPO 2400/2401 24015G30KT
     FM240200 VRB06KT P6SM SCT120
     FM241800 24012G22KT P6SM SCT070=

USA.gov is the U.S. government's official web portal to all federal, state and local government web resources and services.